Time;durP1;ratioP1;P1;durP2;ratioP2;P2;SDS_P1;SDS_P2;PMS_P1;PMS_P2;Temp;Humidity;BMP_temperature;BMP_pressure;BME280_temperature;BME280_humidity;BME280_pressure;Samples;Min_cycle;Max_cycle;Signal;HPM_P1;HPM_P2
2022/07/08 14:16:46;;;;;;;6.10;1.25;;;25.70;89.40;;;-144.05;35.49;125687.94;6106628;23;20052;-84
2022/07/08 14:20:01;;;;;;;5.25;1.00;;;26.10;87.80;;;-144.05;35.67;125687.94;6009044;23;20022;-84
2022/07/08 14:24:25;;;;;;;;;;;;;;;;;;;;;
2022/07/08 15:50:17;;;;;;;;;;;24.70;97.90;;;-144.05;39.67;125687.94;6060248;23;20069;-86
2022/07/08 15:52:43;;;;;;;4.13;1.33;;;24.60;98.20;;;-144.05;39.57;125687.94;6100161;23;20328;-83
2022/07/08 15:55:12;;;;;;;4.97;1.27;;;24.80;98.30;;;-144.05;38.60;125687.94;6100459;23;20037;-84
2022/07/08 15:57:43;;;;;;;4.53;1.30;;;25.10;96.80;;;-144.05;38.62;125687.94;6100172;23;20057;-84
2022/07/08 16:00:45;;;;;;;4.88;1.30;;;25.20;97.10;;;-144.05;37.45;125687.94;6126039;23;20099;-89
2022/07/08 16:03:48;;;;;;;2.83;1.30;;;25.50;94.80;;;-144.05;38.46;125687.94;6101637;23;20454;-88
2022/07/08 16:06:14;;;;;;;5.25;1.42;;;25.10;96.40;;;-144.05;39.37;125687.94;6102150;23;20005;-87
2022/07/08 16:09:14;;;;;;;3.30;1.15;;;24.70;96.80;;;-144.05;40.58;125687.94;6102176;23;20013;-84
2022/07/08 16:11:40;;;;;;;5.28;1.52;;;24.20;98.80;;;-144.05;40.81;125687.94;6102030;23;20100;-87
2022/07/08 16:14:19;;;;;;;4.78;1.48;;;23.90;99.90;;;-144.05;40.80;125687.94;6126700;23;20418;-86
2022/07/08 16:17:02;;;;;;;3.60;1.40;;;23.90;99.90;;;-144.05;40.28;125687.94;6102115;23;20010;-87
2022/07/08 16:19:54;;;;;;;7.50;1.27;;;24.10;99.70;;;-144.05;40.42;125687.94;6101832;23;20006;-89
2022/07/08 16:22:33;;;;;;;3.38;1.05;;;24.20;99.90;;;-144.05;39.71;125687.94;6101595;23;20014;-88
2022/07/08 16:26:19;;;;;;;5.05;1.60;;;24.30;99.50;;;-144.05;39.90;125687.94;6101580;23;20006;-86
2022/07/08 16:29:41;;;;;;;4.30;1.55;;;24.00;99.40;;;-144.05;39.98;125687.94;6064817;23;20014;-84
2022/07/08 16:32:16;;;;;;;3.40;1.33;;;24.30;99.90;;;-144.05;40.06;125687.94;6101133;23;20006;-85
2022/07/08 16:34:51;;;;;;;4.05;1.05;;;24.40;99.90;;;-144.05;39.93;125687.94;6100735;23;20010;-87
2022/07/08 16:40:39;;;;;;;6.03;1.23;;;24.60;98.40;;;-144.05;39.60;125687.94;6127381;23;20372;-86
2022/07/08 16:47:15;;;;;;;4.90;1.27;;;24.30;99.50;;;-144.05;40.47;125687.94;6152132;23;20002;-81
2022/07/08 16:49:50;;;;;;;7.20;1.73;;;23.90;99.90;;;-144.05;41.00;125687.94;6126613;23;20006;-80
2022/07/08 16:52:58;;;;;;;;;;;;;;;;;;;;;
2022/07/08 16:55:42;;;;;;;4.15;1.52;;;23.60;99.90;;;-144.05;41.40;125687.94;6127786;23;20762;-87
2022/07/08 16:58:42;;;;;;;3.83;1.45;;;23.50;99.90;;;-144.05;41.69;125687.94;6096700;23;20082;-86
2022/07/08 17:01:08;;;;;;;3.67;1.23;;;23.50;99.90;;;-144.05;41.44;125687.94;6126879;23;20010;-84
2022/07/08 17:03:35;;;;;;;5.40;1.70;;;23.50;99.90;;;-144.05;41.51;125687.94;6104325;23;20013;-83
2022/07/08 17:06:02;;;;;;;3.65;1.33;;;23.50;99.90;;;-144.05;41.78;125687.94;6104512;23;20428;-87
2022/07/08 17:08:28;;;;;;;4.18;1.20;;;23.50;99.90;;;-144.05;41.79;125687.94;6105096;23;20069;-84
2022/07/08 17:10:54;;;;;;;7.90;1.60;;;23.40;99.90;;;-144.05;41.74;125687.94;6130662;23;20041;-86
2022/07/08 17:13:22;;;;;;;2.72;1.30;;;23.50;99.90;;;-144.05;41.97;125687.94;6119008;23;20033;-82
2022/07/08 17:15:48;;;;;;;2.65;1.20;;;23.40;99.90;;;-144.05;42.05;125687.94;6121849;23;20032;-86
2022/07/08 17:18:14;;;;;;;4.47;1.67;;;23.40;99.90;;;-144.05;41.73;125687.94;6100331;23;20459;-86
2022/07/08 17:20:44;;;;;;;4.72;1.10;;;23.40;99.90;;;-144.05;42.01;125687.94;6101144;23;20357;-86
2022/07/08 17:23:29;;;;;;;4.03;1.42;;;23.40;99.90;;;-144.05;41.65;125687.94;6100394;23;20017;-87
2022/07/08 17:26:22;;;;;;;2.90;1.10;;;23.40;99.90;;;-144.05;42.09;125687.94;6096426;23;20018;-87
2022/07/08 17:32:17;;;;;;;5.15;1.48;;;23.20;99.90;;;-144.05;42.62;125687.94;6127284;23;20352;-86
2022/07/08 17:35:19;;;;;;;5.13;1.52;;;23.10;99.90;;;-144.05;42.75;125687.94;6101710;23;20014;-86
2022/07/08 17:37:48;;;;;;;6.88;1.77;;;23.10;99.90;;;-144.05;43.48;125687.94;6124278;23;20014;-84
2022/07/08 17:40:14;;;;;;;5.63;1.40;;;23.00;99.90;;;-144.05;43.56;125687.94;6101154;23;20016;-88
2022/07/08 17:43:01;;;;;;;5.75;1.45;;;22.90;99.90;;;-144.05;43.54;125687.94;6125464;23;20010;-88
2022/07/08 17:45:34;;;;;;;5.22;1.65;;;22.80;99.90;;;-144.05;43.77;125687.94;6100211;23;20013;-87
2022/07/08 17:48:10;;;;;;;5.57;1.60;;;22.70;99.90;;;-144.05;43.84;125687.94;6099947;23;20042;-88
2022/07/08 17:50:38;;;;;;;4.82;2.05;;;22.30;99.90;;;-144.05;44.23;125687.94;6124258;23;20041;-88
2022/07/08 17:53:51;;;;;;;4.63;1.60;;;22.60;99.90;;;-144.05;44.51;125687.94;6124612;23;20005;-84
2022/07/08 17:56:17;;;;;;;3.28;1.35;;;22.50;99.90;;;-144.05;44.53;125687.94;6102535;23;20020;-85
2022/07/08 17:58:47;;;;;;;4.05;1.80;;;22.40;99.90;;;-144.05;45.04;125687.94;6103534;23;20010;-83
2022/07/08 18:01:14;;;;;;;4.97;1.27;;;22.40;99.90;;;-144.05;44.83;125687.94;6125979;23;20448;-86
2022/07/08 18:03:39;;;;;;;6.90;1.67;;;22.40;99.90;;;-144.05;44.59;125687.94;6100884;23;20113;-83
2022/07/08 18:06:06;;;;;;;3.30;1.27;;;22.30;99.90;;;-144.05;44.44;125687.94;6100004;23;20390;-84
2022/07/08 18:08:33;;;;;;;2.33;1.30;;;22.50;99.90;;;-144.05;44.34;125687.94;6100307;23;20010;-85
2022/07/08 18:11:05;;;;;;;8.77;2.00;;;22.60;99.90;;;-144.05;43.99;125687.94;6100507;23;20060;-84
2022/07/08 18:13:37;;;;;;;5.40;1.95;;;22.80;99.90;;;-144.05;43.76;125687.94;6101313;23;20006;-86
2022/07/08 18:16:20;;;;;;;2.70;1.30;;;22.90;99.90;;;-144.05;43.54;125687.94;6124142;23;20144;-84
2022/07/08 18:18:57;;;;;;;5.13;1.40;;;22.90;99.90;;;-144.05;44.37;125687.94;6099489;23;20033;-85
2022/07/08 18:21:47;;;;;;;6.30;1.67;;;22.80;99.90;;;-144.05;44.68;125687.94;6127097;23;20002;-82
2022/07/08 18:24:29;;;;;;;6.63;1.60;;;22.70;99.90;;;-144.05;45.00;125687.94;6101606;23;20344;-83
2022/07/08 18:30:47;;;;;;;5.10;1.83;;;22.30;99.90;;;-144.05;46.18;125687.94;6124732;23;20491;-84
2022/07/08 18:34:00;;;;;;;12.23;6.20;;;22.10;99.90;;;-144.05;46.90;125687.94;6101527;23;20053;-84
2022/07/08 18:36:32;;;;;;;5.63;2.63;;;21.90;99.90;;;-144.05;47.17;125687.94;6102397;23;20018;-83
2022/07/08 18:38:59;;;;;;;7.13;2.15;;;21.70;99.90;;;-144.05;47.74;125687.94;6108044;23;20038;-86
2022/07/08 18:41:28;;;;;;;4.88;1.63;;;21.60;99.90;;;-144.05;48.19;125687.94;6127438;23;20009;-84
2022/07/08 18:43:55;;;;;;;7.53;1.63;;;21.50;99.90;;;-144.05;48.91;125687.94;6157261;23;20049;-84
2022/07/08 18:46:28;;;;;;;3.28;1.65;;;21.80;99.90;;;-144.05;49.26;125687.94;6130674;23;20079;-81
2022/07/08 18:48:57;;;;;;;4.22;1.15;;;21.20;99.90;;;-144.05;49.40;125687.94;6130621;23;20321;-81
2022/07/08 18:51:23;;;;;;;6.18;1.70;;;21.10;99.90;;;-144.05;49.68;125687.94;6130634;23;20009;-81
2022/07/08 18:53:52;;;;;;;2.72;1.58;;;21.10;99.90;;;-144.05;49.91;125687.94;6130903;23;20024;-84
2022/07/08 18:56:24;;;;;;;3.97;1.90;;;20.90;99.90;;;-144.05;50.10;125687.94;6130936;23;20114;-85
2022/07/08 18:59:03;;;;;;;4.53;1.40;;;20.90;99.90;;;-144.05;50.55;125687.94;6131310;23;20436;-83
2022/07/08 19:01:32;;;;;;;5.55;1.70;;;20.80;99.90;;;-144.05;50.97;125687.94;6131386;23;20322;-85
2022/07/08 19:04:04;;;;;;;3.10;1.38;;;20.70;99.90;;;-144.05;51.26;125687.94;6155850;23;20032;-86
2022/07/08 19:06:30;;;;;;;3.15;1.60;;;20.70;99.90;;;-144.05;51.52;125687.94;6136174;23;20006;-82
2022/07/08 19:09:05;;;;;;;3.38;1.60;;;20.70;99.90;;;-144.05;51.83;125687.94;6136081;23;20336;-84
2022/07/08 19:11:58;;;;;;;5.60;2.13;;;20.60;99.90;;;-144.05;52.08;125687.94;6158099;23;20081;-86
2022/07/08 19:14:28;;;;;;;6.35;2.05;;;20.60;99.90;;;-144.05;52.64;125687.94;6132857;23;20076;-86
2022/07/08 19:17:22;;;;;;;5.72;1.70;;;20.50;99.90;;;-144.05;53.24;125687.94;6134217;23;20440;-85
2022/07/08 19:20:09;;;;;;;;;;;;;;;;;;;;;
2022/07/08 19:22:35;;;;;;;3.65;1.70;;;20.20;99.90;;;-144.05;54.29;125687.94;6182425;23;20002;-84
2022/07/08 19:25:01;;;;;;;2.97;1.63;;;20.10;99.90;;;-144.05;54.67;125687.94;6132805;23;20044;-87
2022/07/08 19:27:28;;;;;;;5.93;1.92;;;20.10;99.90;;;-144.05;54.82;125687.94;6130707;23;20019;-85
2022/07/08 19:29:54;;;;;;;4.68;1.85;;;20.00;99.90;;;-144.05;54.92;125687.94;6131074;23;20020;-83
2022/07/08 19:32:20;;;;;;;5.05;2.05;;;19.90;99.90;;;-144.05;54.99;125687.94;6131363;23;20014;-83
2022/07/08 19:34:49;;;;;;;6.28;2.28;;;19.90;99.90;;;-144.05;54.99;125687.94;6131852;23;20013;-86
2022/07/08 19:37:59;;;;;;;2.60;1.45;;;19.90;99.90;;;-144.05;54.78;125687.94;6131800;23;20009;-87
2022/07/08 19:40:29;;;;;;;5.38;1.63;;;19.90;99.90;;;-144.05;54.65;125687.94;6108010;23;20040;-86
2022/07/08 19:42:59;;;;;;;5.80;1.60;;;19.90;99.90;;;-144.05;54.83;125687.94;6131315;23;20084;-89
2022/07/08 19:45:25;;;;;;;4.70;2.00;;;19.80;99.90;;;-144.05;55.16;125687.94;6131436;23;20014;-87
2022/07/08 19:47:54;;;;;;;4.15;2.20;;;19.70;99.90;;;-144.05;55.67;125687.94;6131600;23;20009;-86
2022/07/08 19:50:20;;;;;;;5.57;2.00;;;19.60;99.90;;;-144.05;56.15;125687.94;6130698;23;20424;-87
2022/07/08 19:52:46;;;;;;;7.18;2.58;;;19.50;99.90;;;-144.05;56.85;125687.94;6130725;23;20014;-84
2022/07/08 19:55:12;;;;;;;6.05;2.75;;;19.40;99.90;;;-144.05;57.05;125687.94;6130282;23;20360;-84
2022/07/08 19:57:38;;;;;;;6.85;2.80;;;19.20;99.90;;;-144.05;57.44;125687.94;6130374;23;20056;-87
2022/07/08 20:00:08;;;;;;;6.40;2.10;;;19.20;99.90;;;-144.05;57.66;125687.94;6129883;23;20068;-85
2022/07/08 20:02:41;;;;;;;3.67;2.00;;;18.70;99.90;;;-144.05;57.92;125687.94;6154657;23;20412;-82
2022/07/08 20:05:17;;;;;;;4.55;2.20;;;18.90;99.90;;;-144.05;58.24;125687.94;6156149;23;20100;-84
2022/07/08 20:07:47;;;;;;;3.72;2.25;;;18.90;99.90;;;-144.05;58.71;125687.94;6128369;23;20015;-84
2022/07/08 20:10:29;;;;;;;6.00;2.10;;;18.80;99.90;;;-144.05;59.03;125687.94;6129696;23;20005;-85
2022/07/08 20:13:23;;;;;;;3.63;2.30;;;18.70;99.90;;;-144.05;59.55;125687.94;6119678;23;20025;-86
2022/07/08 20:16:16;;;;;;;3.67;2.10;;;18.60;99.90;;;-144.05;60.11;125687.94;6154811;23;20013;-83
2022/07/08 20:18:46;;;;;;;5.25;2.80;;;18.40;99.90;;;-144.05;60.38;125687.94;6107308;23;20020;-85
2022/07/08 20:21:12;;;;;;;4.78;2.97;;;18.40;99.90;;;-144.05;60.96;125687.94;6124028;23;20032;-86
2022/07/08 20:23:39;;;;;;;6.63;2.78;;;18.40;99.90;;;-144.05;61.01;125687.94;6155853;23;20034;-85
2022/07/08 20:26:05;;;;;;;4.00;2.53;;;18.40;99.90;;;-144.05;61.03;125687.94;6155675;23;20175;-86
2022/07/08 20:28:31;;;;;;;6.03;3.00;;;18.40;99.90;;;-144.05;60.93;125687.94;6156325;23;20068;-86
2022/07/08 20:30:57;;;;;;;6.72;2.30;;;18.30;99.90;;;-144.05;61.34;125687.94;6153660;23;20420;-87
2022/07/08 20:33:23;;;;;;;5.13;2.10;;;18.20;99.90;;;-144.05;61.75;125687.94;6129992;23;20340;-85
2022/07/08 20:35:51;;;;;;;3.33;2.13;;;18.10;99.90;;;-144.05;61.86;125687.94;6155364;23;20450;-85
2022/07/08 20:48:41;;;;;;;8.70;2.80;;;17.90;99.90;;;-144.05;63.43;125687.94;6036990;23;20030;-86
2022/07/08 20:55:32;;;;;;;4.75;2.70;;;17.70;99.90;;;-144.05;63.69;125687.94;6058881;23;20549;-89
2022/07/08 20:59:10;;;;;;;6.97;2.95;;;17.60;99.90;;;-144.05;63.94;125687.94;6066156;23;20106;-87
2022/07/08 21:01:48;;;;;;;6.80;2.65;;;17.50;99.90;;;-144.05;64.87;125687.94;6070859;23;20010;-88
2022/07/08 21:04:52;;;;;;;;;;;;;;;;;;;;;
2022/07/08 21:07:22;;;;;;;5.50;2.60;;;17.10;99.90;;;-144.05;65.34;125687.94;6076424;23;20121;-87
2022/07/08 21:10:30;;;;;;;4.75;2.80;;;17.30;99.90;;;-144.05;65.67;125687.94;6101213;23;20346;-88
2022/07/08 21:12:56;;;;;;;3.45;2.20;;;17.30;99.90;;;-144.05;65.75;125687.94;6099418;23;20066;-86
2022/07/08 21:15:36;;;;;;;3.60;2.50;;;17.20;99.90;;;-144.05;65.98;125687.94;6125466;23;20018;-88
2022/07/08 21:18:06;;;;;;;6.85;2.88;;;17.20;99.90;;;-144.05;66.47;125687.94;6101744;23;20440;-86
2022/07/08 21:21:07;;;;;;;12.82;8.93;;;17.10;99.90;;;-144.05;66.87;125687.94;6103714;23;20388;-85
2022/07/08 21:23:38;;;;;;;17.35;9.90;;;17.10;99.90;;;-144.05;66.84;125687.94;6102697;23;20014;-85
2022/07/08 21:26:40;;;;;;;;;;;;;;;;;;;;;
2022/07/08 21:32:08;;;;;;;10.95;6.38;;;17.00;99.90;;;-144.05;67.47;125687.94;6084828;23;20022;-89
2022/07/08 21:34:48;;;;;;;4.40;3.30;;;17.00;99.90;;;-144.05;67.61;125687.94;6101295;23;20021;-90
2022/07/08 21:37:50;;;;;;;7.65;2.92;;;17.00;99.90;;;-144.05;67.90;125687.94;6100983;23;20113;-89
2022/07/08 21:40:26;;;;;;;3.60;2.75;;;16.90;99.90;;;-144.05;67.78;125687.94;6067723;23;20030;-86
2022/07/08 21:43:11;;;;;;;3.45;2.50;;;16.90;99.90;;;-144.05;68.00;125687.94;6072371;23;20011;-89
2022/07/08 21:45:46;;;;;;;8.20;3.05;;;16.80;99.90;;;-144.05;68.33;125687.94;6072185;23;20425;-86
2022/07/08 21:48:31;;;;;;;5.97;2.65;;;16.80;99.90;;;-144.05;68.38;125687.94;6071791;23;20006;-85
2022/07/08 21:51:35;;;;;;;4.97;2.97;;;17.30;99.90;;;-144.05;68.64;125687.94;6075236;23;20183;-89
2022/07/08 21:54:10;;;;;;;4.85;2.97;;;16.80;99.90;;;-144.05;68.47;125687.94;6065810;23;20409;-86
2022/07/08 21:56:58;;;;;;;6.90;2.67;;;16.80;99.90;;;-144.05;68.53;125687.94;6081435;23;20477;-90
2022/07/08 21:59:46;;;;;;;4.40;2.65;;;16.80;99.90;;;-144.05;68.62;125687.94;6132702;23;20010;-86
2022/07/08 22:02:12;;;;;;;5.05;3.00;;;16.70;99.90;;;-144.05;68.92;125687.94;6157723;23;20009;-87
2022/07/08 22:04:38;;;;;;;7.47;3.42;;;16.70;99.90;;;-144.05;68.93;125687.94;6157169;23;20144;-84
2022/07/08 22:07:05;;;;;;;4.75;2.80;;;16.70;99.90;;;-144.05;68.89;125687.94;6158796;23;20040;-83
2022/07/08 22:09:31;;;;;;;5.72;3.58;;;16.70;99.90;;;-144.05;69.23;125687.94;6156986;23;20005;-86
2022/07/08 22:11:57;;;;;;;7.03;3.78;;;16.60;99.90;;;-144.05;69.65;125687.94;6156590;23;20088;-84
2022/07/08 22:14:22;;;;;;;9.93;3.58;;;16.60;99.90;;;-144.05;69.90;125687.94;6158731;23;20013;-86
2022/07/08 22:16:48;;;;;;;4.57;2.90;;;16.70;99.90;;;-144.05;69.58;125687.94;6159584;23;20028;-85
2022/07/08 22:19:14;;;;;;;5.57;2.95;;;16.60;99.90;;;-144.05;69.77;125687.94;6131944;23;20019;-88
2022/07/08 22:21:40;;;;;;;5.22;3.28;;;16.60;99.90;;;-144.05;70.14;125687.94;6161225;23;20047;-82
2022/07/08 22:24:08;;;;;;;5.50;3.17;;;16.50;99.90;;;-144.05;70.50;125687.94;6182445;23;20041;-84
2022/07/08 22:26:34;;;;;;;7.47;3.45;;;16.40;99.90;;;-144.05;70.64;125687.94;6182281;23;20008;-80
2022/07/08 22:29:05;;;;;;;7.40;3.38;;;16.40;99.90;;;-144.05;70.76;125687.94;6176071;23;20340;-88
2022/07/08 22:31:31;;;;;;;9.40;3.25;;;16.40;99.90;;;-144.05;71.10;125687.94;6157681;23;20379;-85
2022/07/08 22:33:57;;;;;;;5.75;3.50;;;16.30;99.90;;;-144.05;71.57;125687.94;6159773;23;20076;-86
2022/07/08 22:36:26;;;;;;;5.72;3.70;;;16.60;99.90;;;-144.05;72.31;125687.94;6156979;23;20010;-84
2022/07/08 22:38:53;;;;;;;6.00;3.20;;;16.20;99.90;;;-144.05;72.40;125687.94;6157627;23;20006;-89
2022/07/08 22:41:25;;;;;;;6.20;3.50;;;16.20;99.90;;;-144.05;72.53;125687.94;6156725;23;20006;-85
2022/07/08 22:43:53;;;;;;;5.75;3.22;;;16.20;99.90;;;-144.05;72.46;125687.94;6156176;23;20055;-88
2022/07/08 22:46:19;;;;;;;5.47;3.53;;;16.20;99.90;;;-144.05;72.60;125687.94;6157246;23;20040;-87
2022/07/08 22:48:48;;;;;;;5.97;3.92;;;16.10;99.90;;;-144.05;72.90;125687.94;6132146;23;20072;-86
2022/07/08 22:51:14;;;;;;;5.22;3.47;;;16.10;99.90;;;-144.05;73.10;125687.94;6157727;23;20016;-87
2022/07/08 22:53:42;;;;;;;5.65;3.63;;;16.10;99.90;;;-144.05;73.35;125687.94;6157808;23;20008;-87
2022/07/08 22:56:08;;;;;;;6.90;3.72;;;16.00;99.90;;;-144.05;73.49;125687.94;6131931;23;20009;-85
2022/07/08 22:58:40;;;;;;;4.38;3.00;;;16.00;99.90;;;-144.05;73.87;125687.94;6156869;23;20397;-86
2022/07/08 23:01:06;;;;;;;5.82;3.17;;;16.00;99.90;;;-144.05;74.17;125687.94;6156501;23;20006;-85
2022/07/08 23:03:32;;;;;;;4.22;3.13;;;15.90;99.90;;;-144.05;74.11;125687.94;6155954;23;20243;-86
2022/07/08 23:06:02;;;;;;;6.40;3.63;;;15.90;99.90;;;-144.05;74.22;125687.94;6157889;23;20002;-88
2022/07/08 23:08:28;;;;;;;6.50;3.10;;;15.90;99.90;;;-144.05;74.32;125687.94;6157371;23;20088;-87
2022/07/08 23:10:54;;;;;;;7.22;3.65;;;15.90;99.90;;;-144.05;74.75;125687.94;6156583;23;20012;-87
2022/07/08 23:13:21;;;;;;;7.68;3.08;;;15.80;99.90;;;-144.05;74.78;125687.94;6157333;23;20373;-88
2022/07/08 23:15:47;;;;;;;5.28;3.63;;;15.80;99.90;;;-144.05;75.25;125687.94;6158343;23;20091;-88
2022/07/08 23:18:13;;;;;;;5.18;3.58;;;15.80;99.90;;;-144.05;75.15;125687.94;6157879;23;20014;-89
2022/07/08 23:20:39;;;;;;;4.38;3.22;;;15.70;99.90;;;-144.05;75.52;125687.94;6161929;23;20025;-88
2022/07/08 23:23:10;;;;;;;8.68;4.25;;;15.70;99.90;;;-144.05;75.83;125687.94;6162058;23;20017;-86
2022/07/08 23:25:36;;;;;;;8.85;3.55;;;15.70;99.90;;;-144.05;75.46;125687.94;6162616;23;20106;-87
2022/07/08 23:28:02;;;;;;;8.07;4.05;;;15.70;99.90;;;-144.05;75.77;125687.94;6156412;23;20009;-86
2022/07/08 23:30:28;;;;;;;6.57;3.60;;;15.70;99.90;;;-144.05;75.96;125687.94;6156884;23;20009;-87
2022/07/08 23:32:53;;;;;;;5.97;3.67;;;15.70;99.90;;;-144.05;75.97;125687.94;6133529;23;20013;-83
2022/07/08 23:35:19;;;;;;;5.88;3.72;;;15.70;99.90;;;-144.05;76.25;125687.94;6181451;23;20018;-81
2022/07/08 23:37:46;;;;;;;6.38;3.80;;;15.70;99.90;;;-144.05;76.39;125687.94;6138632;23;20018;-83
2022/07/08 23:40:12;;;;;;;7.10;3.10;;;15.70;99.90;;;-144.05;76.35;125687.94;6154177;23;20063;-87
2022/07/08 23:42:38;;;;;;;6.95;3.53;;;15.60;99.90;;;-144.05;76.61;125687.94;6130299;23;20052;-83
2022/07/08 23:45:05;;;;;;;7.82;3.90;;;15.60;99.90;;;-144.05;77.50;125687.94;6154225;23;20388;-84
2022/07/08 23:47:34;;;;;;;10.45;5.45;;;15.60;99.90;;;-144.05;77.58;125687.94;6155066;23;20053;-86
2022/07/08 23:50:01;;;;;;;7.03;4.90;;;15.70;99.90;;;-144.05;77.19;125687.94;6130439;23;20006;-84
2022/07/08 23:52:31;;;;;;;7.47;5.07;;;15.70;99.90;;;-144.05;77.17;125687.94;6154949;23;20019;-81
2022/07/08 23:54:57;;;;;;;9.45;4.82;;;15.70;99.90;;;-144.05;76.99;125687.94;6155198;23;20013;-84
2022/07/08 23:57:22;;;;;;;8.32;5.07;;;15.60;99.90;;;-144.05;76.92;125687.94;6154889;23;20471;-87
2022/07/08 23:59:55;;;;;;;5.20;3.90;;;15.60;99.90;;;-144.05;77.08;125687.94;6156129;23;20013;-86
